Flight Briefing for CMB819

Departure Arrival
Daniel K Inouye International Airport (PHNL)
Click to view FAA NOTAMS
Travis Air Force Base (KSUU)
Click to view FAA NOTAMS
Departure Time Arrival Time
N/A N/A
Aircraft Distance
B757-200SF 2117nm
Departure METAR Arrival METAR
PHNL 212153Z 23014KT 10SM FEW025 SCT035 31/21 A3004 RMK AO2 SLP171 T03060211 $ KSUU 212226Z AUTO 24017KT 10SM FEW049 BKN070 17/09 A2984 RMK AO2 RAE00RAB16E26 SLP112 $
Suggested Route
MKK4 CLUTS R465 CINNY ROVUE OSVEE1


View recent IFR Routes data
Notes
USTRANSCOM CONTRACT FLIGHT

Charts and Procedures

Charts for PHNL
No chart available
Charts for KSUU
No chart available

Windy.com Weather Map